sensor_id;sensor_type;location;lat;lon;timestamp;temperature;humidity
420;DHT22;42600;54.408;13.016;2024-02-26T00:00:22;4.10;92.70
420;DHT22;42600;54.408;13.016;2024-02-26T00:02:50;4.10;92.70
420;DHT22;42600;54.408;13.016;2024-02-26T00:05:16;4.10;92.70
420;DHT22;42600;54.408;13.016;2024-02-26T00:07:43;4.00;92.70
420;DHT22;42600;54.408;13.016;2024-02-26T00:10:10;4.00;92.70
420;DHT22;42600;54.408;13.016;2024-02-26T00:12:37;4.00;92.70
420;DHT22;42600;54.408;13.016;2024-02-26T00:15:04;4.00;92.70
420;DHT22;42600;54.408;13.016;2024-02-26T00:17:31;4.00;92.70
420;DHT22;42600;54.408;13.016;2024-02-26T00:19:59;4.00;92.70
420;DHT22;42600;54.408;13.016;2024-02-26T00:22:26;4.00;92.70
420;DHT22;42600;54.408;13.016;2024-02-26T00:24:53;4.00;92.70
420;DHT22;42600;54.408;13.016;2024-02-26T00:27:19;4.00;92.70
420;DHT22;42600;54.408;13.016;2024-02-26T00:29:46;3.90;92.70
420;DHT22;42600;54.408;13.016;2024-02-26T00:32:13;3.80;92.70
420;DHT22;42600;54.408;13.016;2024-02-26T00:34:39;3.90;92.70
420;DHT22;42600;54.408;13.016;2024-02-26T00:37:07;3.70;92.70
420;DHT22;42600;54.408;13.016;2024-02-26T00:39:34;3.70;92.70
420;DHT22;42600;54.408;13.016;2024-02-26T00:42:00;3.70;92.70
420;DHT22;42600;54.408;13.016;2024-02-26T00:44:27;3.70;92.70
420;DHT22;42600;54.408;13.016;2024-02-26T00:46:53;3.70;92.70
420;DHT22;42600;54.408;13.016;2024-02-26T00:49:20;3.70;92.70
420;DHT22;42600;54.408;13.016;2024-02-26T00:51:46;3.80;92.70
420;DHT22;42600;54.408;13.016;2024-02-26T00:54:14;3.80;92.70
420;DHT22;42600;54.408;13.016;2024-02-26T00:56:41;3.80;92.70
420;DHT22;42600;54.408;13.016;2024-02-26T00:59:07;3.80;92.70
420;DHT22;42600;54.408;13.016;2024-02-26T01:01:34;3.80;92.70
420;DHT22;42600;54.408;13.016;2024-02-26T01:04:00;3.80;92.70
420;DHT22;42600;54.408;13.016;2024-02-26T01:06:28;3.80;92.70
420;DHT22;42600;54.408;13.016;2024-02-26T01:08:55;3.80;92.70
420;DHT22;42600;54.408;13.016;2024-02-26T01:11:23;3.80;92.70
420;DHT22;42600;54.408;13.016;2024-02-26T01:13:49;3.80;92.70
420;DHT22;42600;54.408;13.016;2024-02-26T01:16:18;3.80;92.70
420;DHT22;42600;54.408;13.016;2024-02-26T01:18:45;3.80;92.70
420;DHT22;42600;54.408;13.016;2024-02-26T01:21:11;3.80;92.70
420;DHT22;42600;54.408;13.016;2024-02-26T01:23:38;3.70;92.70
420;DHT22;42600;54.408;13.016;2024-02-26T01:26:05;3.70;92.70
420;DHT22;42600;54.408;13.016;2024-02-26T01:28:32;3.60;92.70
420;DHT22;42600;54.408;13.016;2024-02-26T01:30:59;3.60;92.70
420;DHT22;42600;54.408;13.016;2024-02-26T01:33:26;3.60;92.70
420;DHT22;42600;54.408;13.016;2024-02-26T01:35:52;3.50;92.70
420;DHT22;42600;54.408;13.016;2024-02-26T01:38:19;3.50;92.70
420;DHT22;42600;54.408;13.016;2024-02-26T01:40:46;3.50;92.70
420;DHT22;42600;54.408;13.016;2024-02-26T01:43:12;3.50;92.70
420;DHT22;42600;54.408;13.016;2024-02-26T01:45:40;3.40;92.70
420;DHT22;42600;54.408;13.016;2024-02-26T01:48:07;3.40;92.70
420;DHT22;42600;54.408;13.016;2024-02-26T01:50:34;3.40;92.70
420;DHT22;42600;54.408;13.016;2024-02-26T01:53:02;3.40;92.70
420;DHT22;42600;54.408;13.016;2024-02-26T01:55:28;3.40;92.70
420;DHT22;42600;54.408;13.016;2024-02-26T01:57:55;3.40;92.70
420;DHT22;42600;54.408;13.016;2024-02-26T02:00:22;3.40;92.70
420;DHT22;42600;54.408;13.016;2024-02-26T02:02:51;3.40;92.70
420;DHT22;42600;54.408;13.016;2024-02-26T02:05:20;3.40;92.70
420;DHT22;42600;54.408;13.016;2024-02-26T02:07:47;3.30;92.70
420;DHT22;42600;54.408;13.016;2024-02-26T02:10:15;3.30;92.70
420;DHT22;42600;54.408;13.016;2024-02-26T02:12:41;3.30;92.70
420;DHT22;42600;54.408;13.016;2024-02-26T02:15:08;3.30;92.70
420;DHT22;42600;54.408;13.016;2024-02-26T02:17:35;3.20;92.70
420;DHT22;42600;54.408;13.016;2024-02-26T02:20:05;3.20;92.70
420;DHT22;42600;54.408;13.016;2024-02-26T02:22:35;3.20;92.70
420;DHT22;42600;54.408;13.016;2024-02-26T02:25:01;3.10;92.70
420;DHT22;42600;54.408;13.016;2024-02-26T02:27:29;3.20;92.70
420;DHT22;42600;54.408;13.016;2024-02-26T02:29:57;3.10;92.70
420;DHT22;42600;54.408;13.016;2024-02-26T02:32:24;3.20;92.70
420;DHT22;42600;54.408;13.016;2024-02-26T02:34:51;3.10;92.70
420;DHT22;42600;54.408;13.016;2024-02-26T02:37:18;3.20;92.70
420;DHT22;42600;54.408;13.016;2024-02-26T02:39:46;3.20;92.70
420;DHT22;42600;54.408;13.016;2024-02-26T02:42:12;3.10;92.70
420;DHT22;42600;54.408;13.016;2024-02-26T02:44:39;3.00;92.70
420;DHT22;42600;54.408;13.016;2024-02-26T02:47:05;3.00;92.70
420;DHT22;42600;54.408;13.016;2024-02-26T02:49:32;2.90;92.70
420;DHT22;42600;54.408;13.016;2024-02-26T02:51:59;2.90;92.70
420;DHT22;42600;54.408;13.016;2024-02-26T02:54:26;3.00;92.70
420;DHT22;42600;54.408;13.016;2024-02-26T02:56:54;3.00;92.70
420;DHT22;42600;54.408;13.016;2024-02-26T02:59:20;3.00;92.70
420;DHT22;42600;54.408;13.016;2024-02-26T03:01:47;3.00;92.70
420;DHT22;42600;54.408;13.016;2024-02-26T03:04:13;3.00;92.70
420;DHT22;42600;54.408;13.016;2024-02-26T03:06:40;3.00;92.70
420;DHT22;42600;54.408;13.016;2024-02-26T03:09:07;3.00;92.70
420;DHT22;42600;54.408;13.016;2024-02-26T03:11:33;3.00;92.70
420;DHT22;42600;54.408;13.016;2024-02-26T03:14:01;3.00;92.70
420;DHT22;42600;54.408;13.016;2024-02-26T03:16:29;3.00;92.70
420;DHT22;42600;54.408;13.016;2024-02-26T03:18:55;3.00;92.70
420;DHT22;42600;54.408;13.016;2024-02-26T03:21:22;3.00;92.70
420;DHT22;42600;54.408;13.016;2024-02-26T03:23:48;3.00;92.70
420;DHT22;42600;54.408;13.016;2024-02-26T03:26:15;3.00;92.70
420;DHT22;42600;54.408;13.016;2024-02-26T03:28:41;3.00;92.70
420;DHT22;42600;54.408;13.016;2024-02-26T03:31:09;3.00;92.70
420;DHT22;42600;54.408;13.016;2024-02-26T03:33:37;2.90;92.70
420;DHT22;42600;54.408;13.016;2024-02-26T03:36:04;2.90;92.70
420;DHT22;42600;54.408;13.016;2024-02-26T03:38:32;2.90;92.70
420;DHT22;42600;54.408;13.016;2024-02-26T03:40:59;2.90;92.70
420;DHT22;42600;54.408;13.016;2024-02-26T03:43:26;2.90;92.70
420;DHT22;42600;54.408;13.016;2024-02-26T03:45:52;2.90;92.70
420;DHT22;42600;54.408;13.016;2024-02-26T03:48:20;2.90;92.70
420;DHT22;42600;54.408;13.016;2024-02-26T03:50:47;2.80;92.70
420;DHT22;42600;54.408;13.016;2024-02-26T03:53:13;2.80;92.70
420;DHT22;42600;54.408;13.016;2024-02-26T03:55:40;2.80;92.70
420;DHT22;42600;54.408;13.016;2024-02-26T03:58:07;2.70;92.70
420;DHT22;42600;54.408;13.016;2024-02-26T04:00:34;2.70;92.70
420;DHT22;42600;54.408;13.016;2024-02-26T04:03:01;2.60;92.70
420;DHT22;42600;54.408;13.016;2024-02-26T04:05:29;2.50;92.70
420;DHT22;42600;54.408;13.016;2024-02-26T04:07:55;2.50;92.70
420;DHT22;42600;54.408;13.016;2024-02-26T04:10:22;2.40;92.70
420;DHT22;42600;54.408;13.016;2024-02-26T04:12:48;2.40;92.70
420;DHT22;42600;54.408;13.016;2024-02-26T04:15:15;2.30;92.70
420;DHT22;42600;54.408;13.016;2024-02-26T04:17:42;2.30;92.70
420;DHT22;42600;54.408;13.016;2024-02-26T04:20:13;2.30;92.70
420;DHT22;42600;54.408;13.016;2024-02-26T04:22:42;2.30;92.70
420;DHT22;42600;54.408;13.016;2024-02-26T04:25:09;2.20;92.70
420;DHT22;42600;54.408;13.016;2024-02-26T04:27:35;2.20;92.70
420;DHT22;42600;54.408;13.016;2024-02-26T04:30:03;2.30;92.70
420;DHT22;42600;54.408;13.016;2024-02-26T04:32:30;2.30;92.70
420;DHT22;42600;54.408;13.016;2024-02-26T04:34:57;2.20;92.70
420;DHT22;42600;54.408;13.016;2024-02-26T04:37:23;2.20;92.70
420;DHT22;42600;54.408;13.016;2024-02-26T04:39:51;2.10;92.70
420;DHT22;42600;54.408;13.016;2024-02-26T04:42:18;2.10;92.70
420;DHT22;42600;54.408;13.016;2024-02-26T04:44:44;2.00;92.70
420;DHT22;42600;54.408;13.016;2024-02-26T04:47:11;2.00;92.70
420;DHT22;42600;54.408;13.016;2024-02-26T04:49:38;2.00;92.70
420;DHT22;42600;54.408;13.016;2024-02-26T04:52:05;2.00;92.70
420;DHT22;42600;54.408;13.016;2024-02-26T04:54:31;1.90;92.70
420;DHT22;42600;54.408;13.016;2024-02-26T04:56:59;1.80;92.70
420;DHT22;42600;54.408;13.016;2024-02-26T04:59:26;1.70;92.70
420;DHT22;42600;54.408;13.016;2024-02-26T05:01:52;1.60;92.70
420;DHT22;42600;54.408;13.016;2024-02-26T05:04:19;1.40;92.70
420;DHT22;42600;54.408;13.016;2024-02-26T05:06:46;1.30;92.70
420;DHT22;42600;54.408;13.016;2024-02-26T05:09:12;1.10;92.70
420;DHT22;42600;54.408;13.016;2024-02-26T05:11:39;1.10;92.70
420;DHT22;42600;54.408;13.016;2024-02-26T05:14:07;1.10;92.70
420;DHT22;42600;54.408;13.016;2024-02-26T05:16:34;1.10;92.70
420;DHT22;42600;54.408;13.016;2024-02-26T05:19:01;1.30;92.70
420;DHT22;42600;54.408;13.016;2024-02-26T05:21:28;1.40;92.70
420;DHT22;42600;54.408;13.016;2024-02-26T05:23:54;1.40;92.70
420;DHT22;42600;54.408;13.016;2024-02-26T05:26:21;1.40;92.70
420;DHT22;42600;54.408;13.016;2024-02-26T05:28:48;1.50;92.70
420;DHT22;42600;54.408;13.016;2024-02-26T05:31:16;1.50;92.70
420;DHT22;42600;54.408;13.016;2024-02-26T05:33:43;1.50;92.70
420;DHT22;42600;54.408;13.016;2024-02-26T05:36:10;1.50;92.70
420;DHT22;42600;54.408;13.016;2024-02-26T05:38:36;1.50;92.70
420;DHT22;42600;54.408;13.016;2024-02-26T05:41:03;1.60;92.70
420;DHT22;42600;54.408;13.016;2024-02-26T05:43:31;1.60;92.70
420;DHT22;42600;54.408;13.016;2024-02-26T05:45:57;1.70;92.70
420;DHT22;42600;54.408;13.016;2024-02-26T05:48:25;1.70;92.70
420;DHT22;42600;54.408;13.016;2024-02-26T05:50:52;1.80;92.70
420;DHT22;42600;54.408;13.016;2024-02-26T05:53:18;1.80;92.70
420;DHT22;42600;54.408;13.016;2024-02-26T05:55:45;1.80;92.70
420;DHT22;42600;54.408;13.016;2024-02-26T05:58:11;1.80;92.70
420;DHT22;42600;54.408;13.016;2024-02-26T06:00:39;1.80;92.70
420;DHT22;42600;54.408;13.016;2024-02-26T06:03:06;1.80;92.70
420;DHT22;42600;54.408;13.016;2024-02-26T06:05:34;1.70;92.70
420;DHT22;42600;54.408;13.016;2024-02-26T06:08:01;1.70;92.70
420;DHT22;42600;54.408;13.016;2024-02-26T06:10:28;1.70;92.70
420;DHT22;42600;54.408;13.016;2024-02-26T06:12:54;1.70;92.70
420;DHT22;42600;54.408;13.016;2024-02-26T06:15:21;1.70;92.70
420;DHT22;42600;54.408;13.016;2024-02-26T06:17:48;1.70;92.70
420;DHT22;42600;54.408;13.016;2024-02-26T06:20:14;1.70;92.70
420;DHT22;42600;54.408;13.016;2024-02-26T06:22:42;1.80;92.70
420;DHT22;42600;54.408;13.016;2024-02-26T06:25:10;1.80;92.70
420;DHT22;42600;54.408;13.016;2024-02-26T06:27:36;1.80;92.70
420;DHT22;42600;54.408;13.016;2024-02-26T06:30:04;1.80;92.70
420;DHT22;42600;54.408;13.016;2024-02-26T06:32:31;1.80;92.70
420;DHT22;42600;54.408;13.016;2024-02-26T06:34:57;1.80;92.70
420;DHT22;42600;54.408;13.016;2024-02-26T06:37:24;1.80;92.70
420;DHT22;42600;54.408;13.016;2024-02-26T06:39:52;1.90;92.70
420;DHT22;42600;54.408;13.016;2024-02-26T06:42:18;1.90;92.70
420;DHT22;42600;54.408;13.016;2024-02-26T06:44:45;1.90;92.70
420;DHT22;42600;54.408;13.016;2024-02-26T06:47:11;1.90;92.70
420;DHT22;42600;54.408;13.016;2024-02-26T06:49:38;2.00;92.70
420;DHT22;42600;54.408;13.016;2024-02-26T06:52:05;2.00;92.70
420;DHT22;42600;54.408;13.016;2024-02-26T06:54:31;2.10;92.70
420;DHT22;42600;54.408;13.016;2024-02-26T06:56:59;2.10;92.70
420;DHT22;42600;54.408;13.016;2024-02-26T06:59:26;2.20;92.70
420;DHT22;42600;54.408;13.016;2024-02-26T07:01:53;2.20;92.70
420;DHT22;42600;54.408;13.016;2024-02-26T07:04:20;2.30;92.70
420;DHT22;42600;54.408;13.016;2024-02-26T07:06:47;2.30;92.70
420;DHT22;42600;54.408;13.016;2024-02-26T07:09:14;2.30;92.70
420;DHT22;42600;54.408;13.016;2024-02-26T07:11:41;2.40;92.70
420;DHT22;42600;54.408;13.016;2024-02-26T07:14:11;2.40;92.70
420;DHT22;42600;54.408;13.016;2024-02-26T07:16:38;2.40;92.70
420;DHT22;42600;54.408;13.016;2024-02-26T07:19:05;2.40;92.70
420;DHT22;42600;54.408;13.016;2024-02-26T07:21:31;2.50;92.70
420;DHT22;42600;54.408;13.016;2024-02-26T07:23:59;2.60;92.70
420;DHT22;42600;54.408;13.016;2024-02-26T07:26:25;2.60;92.70
420;DHT22;42600;54.408;13.016;2024-02-26T07:28:52;3.10;92.70
420;DHT22;42600;54.408;13.016;2024-02-26T07:31:20;3.10;92.70
420;DHT22;42600;54.408;13.016;2024-02-26T07:33:46;3.10;92.70
420;DHT22;42600;54.408;13.016;2024-02-26T07:36:13;3.20;92.70
420;DHT22;42600;54.408;13.016;2024-02-26T07:38:39;3.10;92.70
420;DHT22;42600;54.408;13.016;2024-02-26T07:41:06;3.20;92.70
420;DHT22;42600;54.408;13.016;2024-02-26T07:43:32;3.20;92.70
420;DHT22;42600;54.408;13.016;2024-02-26T07:45:59;3.20;92.70
420;DHT22;42600;54.408;13.016;2024-02-26T07:48:27;3.20;92.70
420;DHT22;42600;54.408;13.016;2024-02-26T07:50:54;3.30;92.70
420;DHT22;42600;54.408;13.016;2024-02-26T07:53:20;3.40;92.70
420;DHT22;42600;54.408;13.016;2024-02-26T07:55:47;3.40;92.70
420;DHT22;42600;54.408;13.016;2024-02-26T07:58:13;3.40;92.70
420;DHT22;42600;54.408;13.016;2024-02-26T08:00:40;3.40;92.70
420;DHT22;42600;54.408;13.016;2024-02-26T08:03:07;3.60;92.70
420;DHT22;42600;54.408;13.016;2024-02-26T08:05:34;3.60;92.70
420;DHT22;42600;54.408;13.016;2024-02-26T08:08:01;3.60;92.70
420;DHT22;42600;54.408;13.016;2024-02-26T08:10:28;3.70;92.70
420;DHT22;42600;54.408;13.016;2024-02-26T08:12:54;3.80;92.70
420;DHT22;42600;54.408;13.016;2024-02-26T08:15:23;3.80;92.70
420;DHT22;42600;54.408;13.016;2024-02-26T08:17:50;3.90;92.70
420;DHT22;42600;54.408;13.016;2024-02-26T08:20:16;4.10;92.70
420;DHT22;42600;54.408;13.016;2024-02-26T08:22:45;4.20;92.70
420;DHT22;42600;54.408;13.016;2024-02-26T08:25:12;4.30;92.70
420;DHT22;42600;54.408;13.016;2024-02-26T08:27:37;4.40;92.70
420;DHT22;42600;54.408;13.016;2024-02-26T08:30:05;4.40;92.70
420;DHT22;42600;54.408;13.016;2024-02-26T08:32:32;4.50;92.70
420;DHT22;42600;54.408;13.016;2024-02-26T08:34:59;4.40;92.70
420;DHT22;42600;54.408;13.016;2024-02-26T08:37:26;4.40;92.70
420;DHT22;42600;54.408;13.016;2024-02-26T08:39:53;4.50;92.70
420;DHT22;42600;54.408;13.016;2024-02-26T08:42:20;4.70;92.70
420;DHT22;42600;54.408;13.016;2024-02-26T08:44:49;4.70;92.70
420;DHT22;42600;54.408;13.016;2024-02-26T08:47:16;4.70;92.70
420;DHT22;42600;54.408;13.016;2024-02-26T08:49:43;4.60;92.70
420;DHT22;42600;54.408;13.016;2024-02-26T08:52:10;4.60;92.70
420;DHT22;42600;54.408;13.016;2024-02-26T08:54:36;4.70;92.70
420;DHT22;42600;54.408;13.016;2024-02-26T08:57:04;4.70;92.70
420;DHT22;42600;54.408;13.016;2024-02-26T08:59:31;4.70;92.70
420;DHT22;42600;54.408;13.016;2024-02-26T09:01:57;4.70;92.70
420;DHT22;42600;54.408;13.016;2024-02-26T09:04:35;4.80;92.70
420;DHT22;42600;54.408;13.016;2024-02-26T09:07:02;4.80;92.70
420;DHT22;42600;54.408;13.016;2024-02-26T09:09:29;4.90;92.70
420;DHT22;42600;54.408;13.016;2024-02-26T09:11:55;4.90;92.70
420;DHT22;42600;54.408;13.016;2024-02-26T09:14:23;5.00;92.70
420;DHT22;42600;54.408;13.016;2024-02-26T09:16:50;5.10;92.70
420;DHT22;42600;54.408;13.016;2024-02-26T09:19:17;5.10;92.70
420;DHT22;42600;54.408;13.016;2024-02-26T09:21:44;5.10;92.70
420;DHT22;42600;54.408;13.016;2024-02-26T09:24:11;5.20;92.70
420;DHT22;42600;54.408;13.016;2024-02-26T09:26:38;5.30;92.70
420;DHT22;42600;54.408;13.016;2024-02-26T09:29:04;5.30;92.70
420;DHT22;42600;54.408;13.016;2024-02-26T09:31:32;5.40;92.70
420;DHT22;42600;54.408;13.016;2024-02-26T09:34:00;5.40;92.70
420;DHT22;42600;54.408;13.016;2024-02-26T09:36:26;5.50;92.70
420;DHT22;42600;54.408;13.016;2024-02-26T09:38:53;5.50;92.70
420;DHT22;42600;54.408;13.016;2024-02-26T09:41:20;5.60;92.70
420;DHT22;42600;54.408;13.016;2024-02-26T09:43:48;5.70;92.70
420;DHT22;42600;54.408;13.016;2024-02-26T09:46:18;5.80;92.70
420;DHT22;42600;54.408;13.016;2024-02-26T09:48:47;5.90;92.70
420;DHT22;42600;54.408;13.016;2024-02-26T09:51:14;5.90;92.70
420;DHT22;42600;54.408;13.016;2024-02-26T09:53:43;5.90;92.70
420;DHT22;42600;54.408;13.016;2024-02-26T09:56:11;5.90;92.70
420;DHT22;42600;54.408;13.016;2024-02-26T09:58:39;6.00;92.70
420;DHT22;42600;54.408;13.016;2024-02-26T10:01:10;6.00;92.70
420;DHT22;42600;54.408;13.016;2024-02-26T10:03:40;6.00;92.70
420;DHT22;42600;54.408;13.016;2024-02-26T10:06:08;6.00;92.70
420;DHT22;42600;54.408;13.016;2024-02-26T10:08:35;6.00;92.70
420;DHT22;42600;54.408;13.016;2024-02-26T10:11:03;5.90;92.70
420;DHT22;42600;54.408;13.016;2024-02-26T10:13:29;5.90;92.70
420;DHT22;42600;54.408;13.016;2024-02-26T10:15:56;5.90;92.70
420;DHT22;42600;54.408;13.016;2024-02-26T10:18:24;5.90;92.70
420;DHT22;42600;54.408;13.016;2024-02-26T10:20:59;5.90;92.70
420;DHT22;42600;54.408;13.016;2024-02-26T10:23:27;6.10;92.70
420;DHT22;42600;54.408;13.016;2024-02-26T10:25:54;6.10;92.70
420;DHT22;42600;54.408;13.016;2024-02-26T10:28:22;6.20;92.70
420;DHT22;42600;54.408;13.016;2024-02-26T10:30:48;6.30;92.70
420;DHT22;42600;54.408;13.016;2024-02-26T10:33:15;6.40;92.70
420;DHT22;42600;54.408;13.016;2024-02-26T10:35:45;6.40;92.70
420;DHT22;42600;54.408;13.016;2024-02-26T10:38:12;6.40;92.70
420;DHT22;42600;54.408;13.016;2024-02-26T10:40:40;6.50;92.70
420;DHT22;42600;54.408;13.016;2024-02-26T10:43:07;6.60;92.70
420;DHT22;42600;54.408;13.016;2024-02-26T10:45:33;6.60;92.70
420;DHT22;42600;54.408;13.016;2024-02-26T10:48:00;6.60;92.70
420;DHT22;42600;54.408;13.016;2024-02-26T10:50:27;6.60;92.70
420;DHT22;42600;54.408;13.016;2024-02-26T10:52:55;6.60;92.70
420;DHT22;42600;54.408;13.016;2024-02-26T10:55:22;6.60;92.70
420;DHT22;42600;54.408;13.016;2024-02-26T10:57:52;6.50;92.70
420;DHT22;42600;54.408;13.016;2024-02-26T11:00:19;6.50;92.70
420;DHT22;42600;54.408;13.016;2024-02-26T11:02:46;6.50;92.70
420;DHT22;42600;54.408;13.016;2024-02-26T11:05:14;6.50;92.70
420;DHT22;42600;54.408;13.016;2024-02-26T11:07:41;6.60;92.70
420;DHT22;42600;54.408;13.016;2024-02-26T11:10:09;6.60;92.70
420;DHT22;42600;54.408;13.016;2024-02-26T11:12:39;6.50;92.70
420;DHT22;42600;54.408;13.016;2024-02-26T11:15:08;6.40;92.70
420;DHT22;42600;54.408;13.016;2024-02-26T11:17:35;6.50;92.70
420;DHT22;42600;54.408;13.016;2024-02-26T11:20:04;6.50;92.70
420;DHT22;42600;54.408;13.016;2024-02-26T11:22:31;6.70;92.70
420;DHT22;42600;54.408;13.016;2024-02-26T11:24:58;6.80;92.70
420;DHT22;42600;54.408;13.016;2024-02-26T11:27:29;6.80;92.70
420;DHT22;42600;54.408;13.016;2024-02-26T11:29:58;6.80;92.70
420;DHT22;42600;54.408;13.016;2024-02-26T11:32:28;6.80;92.70
420;DHT22;42600;54.408;13.016;2024-02-26T11:34:55;6.90;92.70
420;DHT22;42600;54.408;13.016;2024-02-26T11:37:22;7.00;92.70
420;DHT22;42600;54.408;13.016;2024-02-26T11:39:51;7.10;92.70
420;DHT22;42600;54.408;13.016;2024-02-26T11:42:23;7.10;92.70
420;DHT22;42600;54.408;13.016;2024-02-26T11:44:49;7.20;92.70
420;DHT22;42600;54.408;13.016;2024-02-26T11:47:19;7.30;92.70
420;DHT22;42600;54.408;13.016;2024-02-26T11:49:47;7.20;92.70
420;DHT22;42600;54.408;13.016;2024-02-26T11:52:14;7.10;92.70
420;DHT22;42600;54.408;13.016;2024-02-26T11:54:45;7.20;92.70
420;DHT22;42600;54.408;13.016;2024-02-26T11:57:26;7.20;92.70
420;DHT22;42600;54.408;13.016;2024-02-26T11:59:53;7.10;92.70
420;DHT22;42600;54.408;13.016;2024-02-26T12:02:44;7.10;92.70
420;DHT22;42600;54.408;13.016;2024-02-26T12:05:13;7.10;92.70
420;DHT22;42600;54.408;13.016;2024-02-26T12:07:43;7.10;92.70
420;DHT22;42600;54.408;13.016;2024-02-26T12:10:16;7.00;92.70
420;DHT22;42600;54.408;13.016;2024-02-26T12:12:42;7.10;92.70
420;DHT22;42600;54.408;13.016;2024-02-26T12:15:09;7.10;92.70
420;DHT22;42600;54.408;13.016;2024-02-26T12:17:36;7.20;92.70
420;DHT22;42600;54.408;13.016;2024-02-26T12:20:10;7.30;92.70
420;DHT22;42600;54.408;13.016;2024-02-26T12:22:39;7.40;92.70
420;DHT22;42600;54.408;13.016;2024-02-26T12:25:08;7.50;92.70
420;DHT22;42600;54.408;13.016;2024-02-26T12:27:35;7.60;92.70
420;DHT22;42600;54.408;13.016;2024-02-26T12:30:02;7.70;92.70
420;DHT22;42600;54.408;13.016;2024-02-26T12:32:30;7.70;92.70
420;DHT22;42600;54.408;13.016;2024-02-26T12:34:57;7.80;92.70
420;DHT22;42600;54.408;13.016;2024-02-26T12:37:23;7.90;92.70
420;DHT22;42600;54.408;13.016;2024-02-26T12:39:51;7.90;92.70
420;DHT22;42600;54.408;13.016;2024-02-26T12:42:17;7.90;92.70
420;DHT22;42600;54.408;13.016;2024-02-26T12:44:45;7.90;92.70
420;DHT22;42600;54.408;13.016;2024-02-26T12:47:11;8.00;92.70
420;DHT22;42600;54.408;13.016;2024-02-26T12:49:42;8.00;92.70
420;DHT22;42600;54.408;13.016;2024-02-26T12:52:09;7.90;92.70
420;DHT22;42600;54.408;13.016;2024-02-26T12:54:36;7.90;92.70
420;DHT22;42600;54.408;13.016;2024-02-26T12:57:06;7.80;92.70
420;DHT22;42600;54.408;13.016;2024-02-26T12:59:34;7.80;92.70
420;DHT22;42600;54.408;13.016;2024-02-26T13:02:01;7.80;92.70
420;DHT22;42600;54.408;13.016;2024-02-26T13:04:29;7.80;92.70
420;DHT22;42600;54.408;13.016;2024-02-26T13:06:57;7.80;92.70
420;DHT22;42600;54.408;13.016;2024-02-26T13:09:26;7.80;92.70
420;DHT22;42600;54.408;13.016;2024-02-26T13:11:53;7.90;92.70
420;DHT22;42600;54.408;13.016;2024-02-26T13:14:21;7.90;92.70
420;DHT22;42600;54.408;13.016;2024-02-26T13:16:54;7.90;92.70
420;DHT22;42600;54.408;13.016;2024-02-26T13:19:21;7.90;92.70
420;DHT22;42600;54.408;13.016;2024-02-26T13:21:48;7.90;92.70
420;DHT22;42600;54.408;13.016;2024-02-26T13:24:15;7.90;92.70
420;DHT22;42600;54.408;13.016;2024-02-26T13:26:43;8.00;92.70
420;DHT22;42600;54.408;13.016;2024-02-26T13:29:16;8.00;92.70
420;DHT22;42600;54.408;13.016;2024-02-26T13:31:44;8.00;92.70
420;DHT22;42600;54.408;13.016;2024-02-26T13:34:22;8.00;92.70
420;DHT22;42600;54.408;13.016;2024-02-26T13:36:48;8.10;92.70
420;DHT22;42600;54.408;13.016;2024-02-26T13:39:21;8.20;92.70
420;DHT22;42600;54.408;13.016;2024-02-26T13:41:48;8.20;92.70
420;DHT22;42600;54.408;13.016;2024-02-26T13:44:14;8.20;92.70
420;DHT22;42600;54.408;13.016;2024-02-26T13:46:41;8.20;92.70
420;DHT22;42600;54.408;13.016;2024-02-26T13:49:09;8.30;92.70
420;DHT22;42600;54.408;13.016;2024-02-26T13:51:36;8.40;92.70
420;DHT22;42600;54.408;13.016;2024-02-26T13:54:03;8.30;92.70
420;DHT22;42600;54.408;13.016;2024-02-26T13:56:30;8.30;92.70
420;DHT22;42600;54.408;13.016;2024-02-26T13:58:56;8.30;92.70
420;DHT22;42600;54.408;13.016;2024-02-26T14:01:23;8.30;92.70
420;DHT22;42600;54.408;13.016;2024-02-26T14:03:50;8.20;92.70
420;DHT22;42600;54.408;13.016;2024-02-26T14:06:18;8.20;92.70
420;DHT22;42600;54.408;13.016;2024-02-26T14:08:45;8.20;92.70
420;DHT22;42600;54.408;13.016;2024-02-26T14:11:11;8.00;92.70
420;DHT22;42600;54.408;13.016;2024-02-26T14:13:38;8.00;92.70
420;DHT22;42600;54.408;13.016;2024-02-26T14:16:04;8.00;92.70
420;DHT22;42600;54.408;13.016;2024-02-26T14:18:32;8.10;92.70
420;DHT22;42600;54.408;13.016;2024-02-26T14:20:58;8.00;92.70
420;DHT22;42600;54.408;13.016;2024-02-26T14:23:26;8.00;92.70
420;DHT22;42600;54.408;13.016;2024-02-26T14:25:53;8.00;92.70
420;DHT22;42600;54.408;13.016;2024-02-26T14:28:20;8.00;92.70
420;DHT22;42600;54.408;13.016;2024-02-26T14:30:46;8.00;92.70
420;DHT22;42600;54.408;13.016;2024-02-26T14:33:13;8.00;92.70
420;DHT22;42600;54.408;13.016;2024-02-26T14:35:39;7.90;92.70
420;DHT22;42600;54.408;13.016;2024-02-26T14:38:06;7.90;92.70
420;DHT22;42600;54.408;13.016;2024-02-26T14:40:34;7.90;92.70
420;DHT22;42600;54.408;13.016;2024-02-26T14:43:00;7.90;92.70
420;DHT22;42600;54.408;13.016;2024-02-26T14:45:29;7.90;92.70
420;DHT22;42600;54.408;13.016;2024-02-26T14:47:56;7.90;92.70
420;DHT22;42600;54.408;13.016;2024-02-26T14:50:22;7.90;92.70
420;DHT22;42600;54.408;13.016;2024-02-26T14:52:49;7.80;92.70
420;DHT22;42600;54.408;13.016;2024-02-26T14:55:16;7.80;92.70
420;DHT22;42600;54.408;13.016;2024-02-26T14:57:43;7.70;92.70
420;DHT22;42600;54.408;13.016;2024-02-26T15:00:11;7.70;92.70
420;DHT22;42600;54.408;13.016;2024-02-26T15:02:37;7.70;92.70
420;DHT22;42600;54.408;13.016;2024-02-26T15:05:05;7.70;92.70
420;DHT22;42600;54.408;13.016;2024-02-26T15:07:33;7.70;92.70
420;DHT22;42600;54.408;13.016;2024-02-26T15:10:01;7.70;92.70
420;DHT22;42600;54.408;13.016;2024-02-26T15:12:28;7.60;92.70
420;DHT22;42600;54.408;13.016;2024-02-26T15:14:56;7.60;92.70
420;DHT22;42600;54.408;13.016;2024-02-26T15:17:22;7.60;92.70
420;DHT22;42600;54.408;13.016;2024-02-26T15:19:49;7.60;92.70
420;DHT22;42600;54.408;13.016;2024-02-26T15:22:16;7.50;92.70
420;DHT22;42600;54.408;13.016;2024-02-26T15:24:44;7.50;92.70
420;DHT22;42600;54.408;13.016;2024-02-26T15:27:12;7.40;92.70
420;DHT22;42600;54.408;13.016;2024-02-26T15:29:38;7.40;92.70
420;DHT22;42600;54.408;13.016;2024-02-26T15:32:07;7.40;92.70
420;DHT22;42600;54.408;13.016;2024-02-26T15:34:33;7.30;92.70
420;DHT22;42600;54.408;13.016;2024-02-26T15:37:00;7.30;92.70
420;DHT22;42600;54.408;13.016;2024-02-26T15:39:26;7.30;92.70
420;DHT22;42600;54.408;13.016;2024-02-26T15:41:53;7.20;92.70
420;DHT22;42600;54.408;13.016;2024-02-26T15:44:19;7.30;92.70
420;DHT22;42600;54.408;13.016;2024-02-26T15:46:46;7.20;92.70
420;DHT22;42600;54.408;13.016;2024-02-26T15:49:14;7.20;92.70
420;DHT22;42600;54.408;13.016;2024-02-26T15:51:41;7.20;92.70
420;DHT22;42600;54.408;13.016;2024-02-26T15:54:07;7.10;92.70
420;DHT22;42600;54.408;13.016;2024-02-26T15:56:34;7.20;92.70
420;DHT22;42600;54.408;13.016;2024-02-26T15:59:01;7.10;92.70
420;DHT22;42600;54.408;13.016;2024-02-26T16:01:27;7.00;92.70